createdAt,value
2018-06-22T00:02:15.639Z,9.99
2018-06-22T00:08:16.299Z,11.04
2018-06-22T00:14:16.905Z,10.66
2018-06-22T00:18:17.806Z,8.89
2018-06-22T00:24:18.463Z,10.04
2018-06-22T00:28:19.306Z,10.24
2018-06-22T00:30:20.218Z,8.81
2018-06-22T00:34:20.818Z,9.64
2018-06-22T00:40:21.440Z,9.68
2018-06-22T00:44:22.082Z,11.46
2018-06-22T00:50:23.075Z,10
2018-06-22T00:54:23.777Z,10.73
2018-06-22T00:56:24.290Z,9.1
2018-06-22T01:00:25.463Z,9.99
2018-06-22T01:06:26.026Z,10.94
2018-06-22T01:10:26.689Z,8.31
2018-06-22T01:16:27.269Z,11
2018-06-22T01:20:27.908Z,10.39
2018-06-22T01:22:28.409Z,10.12
2018-06-22T01:26:28.968Z,10.16
2018-06-22T01:32:29.599Z,11.12
2018-06-22T01:36:30.245Z,10.59
2018-06-22T01:42:30.744Z,11.46
2018-06-22T01:48:31.458Z,8.98
2018-06-22T01:52:31.953Z,8.96
2018-06-22T01:58:32.563Z,10.09
2018-06-22T02:02:33.187Z,9.79
2018-06-22T02:08:33.705Z,9.42
2018-06-22T02:14:34.410Z,10.22
2018-06-22T02:18:35.066Z,10.39
2018-06-22T02:24:35.719Z,12.03
2018-06-22T02:28:36.489Z,11.02
2018-06-22T02:30:37.237Z,9.52
2018-06-22T02:34:37.830Z,9.24
2018-06-22T02:40:38.545Z,9.83
2018-06-22T02:44:39.240Z,12.58
2018-06-22T02:50:39.770Z,10.03
2018-06-22T02:54:40.449Z,10.16
2018-06-22T02:56:41.007Z,11.36
2018-06-22T03:00:41.609Z,10.88
2018-06-22T03:06:42.177Z,9.79
2018-06-22T03:10:42.774Z,10.92
2018-06-22T03:16:43.296Z,10.2
2018-06-22T03:20:43.997Z,9.86
2018-06-22T03:22:44.493Z,9.68
2018-06-22T03:26:45.106Z,9.71
2018-06-22T03:32:45.680Z,12.72
2018-06-22T03:36:46.174Z,11.95
2018-06-22T03:42:46.833Z,11.71
2018-06-22T03:48:52.171Z,10.24
2018-06-22T03:52:52.957Z,10.18
2018-06-22T03:58:53.669Z,8.92
2018-06-22T04:02:55.220Z,12.32
2018-06-22T04:08:55.746Z,11.07
2018-06-22T04:14:56.506Z,9.19
2018-06-22T04:18:57.014Z,11.31
2018-06-22T04:24:57.709Z,9.66
2018-06-22T04:28:58.383Z,9.59
2018-06-22T04:34:59.552Z,10.99
2018-06-22T04:41:00.137Z,10.49
2018-06-22T04:45:00.971Z,11
2018-06-22T04:51:01.656Z,10.46
2018-06-22T04:55:02.347Z,12.48
2018-06-22T04:57:02.839Z,10.01
2018-06-22T05:01:06.477Z,11.62
2018-06-22T05:07:07.428Z,11.25
2018-06-22T05:11:08.161Z,12.68
2018-06-22T05:17:08.840Z,9.85
2018-06-22T05:21:12.552Z,10.24
2018-06-22T05:27:13.135Z,12.12
2018-06-22T05:33:13.803Z,12.93
2018-06-22T05:37:14.445Z,11.25
2018-06-22T05:43:14.996Z,12.02
2018-06-22T05:47:15.696Z,10.56
2018-06-22T05:49:16.293Z,10.23
2018-06-22T05:53:16.851Z,12.28
2018-06-22T05:59:17.448Z,13.88
2018-06-22T06:03:18.173Z,13.44
2018-06-22T06:09:19.294Z,9.26
2018-06-22T06:13:19.866Z,11.74
2018-06-22T06:15:20.749Z,11.02
2018-06-22T06:19:21.357Z,11.55
2018-06-22T06:25:22.016Z,10.85
2018-06-22T06:29:22.674Z,11.76
2018-06-22T06:35:23.409Z,11.99
2018-06-22T06:41:23.973Z,10.96
2018-06-22T06:45:27.678Z,11.15
2018-06-22T06:51:28.254Z,12.88
2018-06-22T06:55:31.999Z,12.55
2018-06-22T07:01:32.542Z,11.71
2018-06-22T07:07:36.663Z,12.41
2018-06-22T07:11:37.302Z,13.78
2018-06-22T07:17:37.933Z,12.49
2018-06-22T07:21:41.538Z,13.88
2018-06-22T07:27:42.160Z,13.14
2018-06-22T07:33:46.035Z,11.6
2018-06-22T07:37:46.355Z,13.6
2018-06-22T07:43:47.470Z,11.75
2018-06-22T07:47:51.128Z,13.44
2018-06-22T07:53:51.732Z,9.92
2018-06-22T07:59:55.479Z,12.92
2018-06-22T08:03:56.129Z,12.11
2018-06-22T08:09:56.749Z,10
2018-06-22T08:13:57.340Z,12.36
2018-06-22T08:19:57.922Z,11.04
2018-06-22T08:25:58.638Z,9.82
2018-06-22T08:29:59.220Z,11.64
2018-06-22T08:36:00.541Z,12.71
2018-06-22T08:40:01.511Z,14.91
2018-06-22T08:46:02.126Z,11.93
2018-06-22T08:52:02.901Z,13.12
2018-06-22T08:56:03.579Z,14.05
2018-06-22T09:02:04.120Z,12.74
2018-06-22T09:06:04.838Z,13.34
2018-06-22T09:08:05.375Z,11.71
2018-06-22T09:12:06.055Z,12.11
2018-06-22T09:18:06.767Z,11.17
2018-06-22T09:22:07.341Z,11.35
2018-06-22T09:28:07.981Z,13.93
2018-06-22T09:32:08.643Z,14.76
2018-06-22T09:34:09.252Z,12.27
2018-06-22T09:38:09.835Z,13.93
2018-06-22T09:44:10.598Z,12.02
2018-06-22T09:48:11.156Z,12.84
2018-06-22T09:54:11.783Z,11.73
2018-06-22T09:58:12.439Z,13.01
2018-06-22T10:00:13.091Z,12.71
2018-06-22T10:04:13.719Z,13.17
2018-06-22T10:10:14.287Z,10.41
2018-06-22T10:14:14.881Z,11.7
2018-06-22T10:20:15.531Z,11.58
2018-06-22T10:26:16.184Z,10.82
2018-06-22T10:30:17.202Z,11.35
2018-06-22T10:36:17.819Z,14.43
2018-06-22T10:40:18.442Z,15.69
2018-06-22T10:46:19.225Z,15.2
2018-06-22T10:52:19.964Z,15.13
2018-06-22T10:56:20.809Z,15.99
2018-06-22T11:02:21.412Z,14.28
2018-06-22T11:06:22.051Z,17.04
2018-06-22T11:08:22.660Z,15.96
2018-06-22T11:12:23.266Z,15.38
2018-06-22T11:18:23.978Z,15.03
2018-06-22T11:22:24.590Z,14.92
2018-06-22T11:28:25.209Z,12.83
2018-06-22T11:32:25.851Z,13.52
2018-06-22T11:34:26.480Z,13.59
2018-06-22T11:38:26.945Z,13.19
2018-06-22T11:44:27.594Z,10.95
2018-06-22T11:48:28.230Z,13.62
2018-06-22T11:54:28.781Z,11.23
2018-06-22T11:58:29.410Z,12.47
2018-06-22T12:00:30.674Z,11.95
2018-06-22T12:04:31.249Z,13.13
2018-06-22T12:10:31.904Z,11
2018-06-22T12:14:32.473Z,10.33
2018-06-22T12:20:33.092Z,10.61
2018-06-22T12:26:33.829Z,11.12
2018-06-22T12:30:34.367Z,12.05
2018-06-22T12:36:35.105Z,11.38
2018-06-22T12:40:35.754Z,10.33
2018-06-22T12:46:36.359Z,11.57
2018-06-22T12:52:37.020Z,12.45
2018-06-22T12:56:37.693Z,10.59
2018-06-22T13:02:38.291Z,11.72
2018-06-22T13:06:38.980Z,13.91
2018-06-22T13:08:39.543Z,10.35
2018-06-22T13:12:40.083Z,14.14
2018-06-22T13:18:40.857Z,10.49
2018-06-22T13:22:41.524Z,10.64
2018-06-22T13:28:42.248Z,11.66
2018-06-22T13:32:42.787Z,10.62
2018-06-22T13:34:43.373Z,12.96
2018-06-22T13:38:43.891Z,11.66
2018-06-22T13:44:44.547Z,10.19
2018-06-22T13:48:45.185Z,9.73
2018-06-22T13:54:45.793Z,11.89
2018-06-22T14:00:46.391Z,15.16
2018-06-22T14:04:46.980Z,15.63
2018-06-22T14:10:47.637Z,10.82
2018-06-22T14:14:49.168Z,12.07
2018-06-22T14:20:49.996Z,11.07
2018-06-22T14:26:50.550Z,10.71
2018-06-22T14:30:51.316Z,13.46
2018-06-22T14:36:52.029Z,11.44
2018-06-22T14:40:52.709Z,13.05
2018-06-22T14:46:53.466Z,13.52
2018-06-22T14:52:54.015Z,11.12
2018-06-22T14:56:54.583Z,11.77
2018-06-22T15:02:55.307Z,9.98
2018-06-22T15:06:55.921Z,11.69
2018-06-22T15:08:56.595Z,11.83
2018-06-22T15:12:57.196Z,12.41
2018-06-22T15:18:58.174Z,10.21
2018-06-22T15:23:00.682Z,9.44
2018-06-22T15:29:01.290Z,12.69
2018-06-22T15:33:01.992Z,15.35
2018-06-22T15:35:02.601Z,10.38
2018-06-22T15:39:03.180Z,11.46
2018-06-22T15:45:03.828Z,12.9
2018-06-22T15:49:04.379Z,11.92
2018-06-22T15:55:05.056Z,11.11
2018-06-22T15:59:05.527Z,11.39
2018-06-22T16:01:06.090Z,11.31
2018-06-22T16:05:06.744Z,10.97
2018-06-22T16:11:07.371Z,12.83
2018-06-22T16:15:08.220Z,11.64
2018-06-22T16:21:08.838Z,13.08
2018-06-22T16:27:09.561Z,11.32
2018-06-22T16:31:10.147Z,13.18
2018-06-22T16:37:10.827Z,12
2018-06-22T16:41:11.381Z,11.48
2018-06-22T16:47:12.014Z,10.46
2018-06-22T16:53:12.595Z,11.01
2018-06-22T16:57:13.375Z,9.23
2018-06-22T17:03:13.924Z,12.39
2018-06-22T17:07:14.628Z,12.88
2018-06-22T17:09:15.051Z,9.65
2018-06-22T17:13:15.679Z,11.41
2018-06-22T17:19:16.372Z,10.91
2018-06-22T17:23:16.881Z,11.14
2018-06-22T17:29:17.629Z,11.71
2018-06-22T17:33:18.220Z,11.41
2018-06-22T17:35:18.936Z,11.21
2018-06-22T17:39:19.612Z,12.32
2018-06-22T17:45:20.548Z,10.43
2018-06-22T17:49:21.217Z,10.06
2018-06-22T17:55:21.879Z,10.37
2018-06-22T18:01:22.408Z,8.7
2018-06-22T18:05:23.029Z,10.4
2018-06-22T18:11:23.642Z,11.82
2018-06-22T18:15:24.813Z,10.48
2018-06-22T18:21:25.748Z,10.65
2018-06-22T18:27:26.416Z,10.02
2018-06-22T18:31:27.015Z,13.16
2018-06-22T18:37:27.627Z,12.37
2018-06-22T18:41:28.299Z,12.63
2018-06-22T18:47:28.849Z,11.91
2018-06-22T18:53:29.639Z,12.34
2018-06-22T18:57:30.267Z,14.46
2018-06-22T19:03:30.815Z,10.54
2018-06-22T19:07:31.389Z,11.7
2018-06-22T19:09:32.024Z,9.1
2018-06-22T19:13:32.554Z,10.8
2018-06-22T19:19:33.199Z,7.28
2018-06-22T19:23:33.868Z,7.23
2018-06-22T19:29:34.488Z,4.34
2018-06-22T19:33:35.197Z,4.54
2018-06-22T19:35:35.629Z,6.02
2018-06-22T19:39:36.222Z,5.09
2018-06-22T19:45:36.844Z,3.77
2018-06-22T19:49:37.614Z,4.43
2018-06-22T19:55:38.376Z,6.02
2018-06-22T20:01:39.094Z,5.82
2018-06-22T20:05:39.669Z,5.39
2018-06-22T20:11:40.278Z,5.09
2018-06-22T20:15:40.891Z,5.03
2018-06-22T20:21:41.570Z,5.05
2018-06-22T20:27:42.133Z,4.27
2018-06-22T20:31:42.777Z,5.31
2018-06-22T20:37:43.361Z,5.05
2018-06-22T20:41:43.894Z,5.13
2018-06-22T20:43:44.531Z,5.34
2018-06-22T20:47:45.084Z,4.32
2018-06-22T20:53:45.688Z,3.86
2018-06-22T20:57:46.263Z,4.43
2018-06-22T21:03:46.926Z,3.81
2018-06-22T21:07:47.514Z,4.15
2018-06-22T21:09:48.094Z,3.74
2018-06-22T21:13:48.684Z,3.29
2018-06-22T21:19:49.557Z,3.37
2018-06-22T21:23:50.156Z,2.66
2018-06-22T21:29:50.824Z,2.66
2018-06-22T21:33:51.438Z,2.87
2018-06-22T21:35:52.000Z,2.95
2018-06-22T21:39:52.706Z,2.61
2018-06-22T21:45:53.236Z,3.12
2018-06-22T21:49:53.891Z,2.72
2018-06-22T21:55:54.667Z,2.93
2018-06-22T22:01:55.289Z,2.54
2018-06-22T22:05:55.929Z,2.57
2018-06-22T22:11:56.537Z,2.96
2018-06-22T22:15:57.091Z,2.93
2018-06-22T22:21:57.728Z,2.83
2018-06-22T22:27:58.310Z,3.34
2018-06-22T22:31:59.001Z,2.68
2018-06-22T22:37:59.626Z,2.58
2018-06-22T22:42:00.497Z,2.56
2018-06-22T22:44:01.100Z,2.32
2018-06-22T22:48:01.747Z,1.89
2018-06-22T22:54:02.267Z,2.68
2018-06-22T22:58:02.962Z,2.46
2018-06-22T23:04:03.615Z,2.87
2018-06-22T23:08:04.214Z,2.26
2018-06-22T23:10:04.800Z,2.71
2018-06-22T23:14:05.300Z,3.13
2018-06-22T23:20:05.886Z,2.49
2018-06-22T23:24:06.589Z,2.24
2018-06-22T23:30:07.452Z,2.22
2018-06-22T23:34:08.044Z,2.37
2018-06-22T23:36:08.597Z,3.12
2018-06-22T23:40:09.228Z,3.15
2018-06-22T23:46:09.919Z,2.54
2018-06-22T23:50:10.428Z,2.22
2018-06-22T23:56:11.138Z,2.47
